createdAt,value
2018-09-10T00:01:04.778Z,10.87
2018-09-10T00:03:33.490Z,10.80
2018-09-10T00:06:02.266Z,10.87
2018-09-10T00:08:30.983Z,9.83
2018-09-10T00:10:59.746Z,10.27
2018-09-10T00:13:28.470Z,10.83
2018-09-10T00:15:59.081Z,10.90
2018-09-10T00:18:27.936Z,10.47
2018-09-10T00:20:56.651Z,11.90
2018-09-10T00:23:25.279Z,11.67
2018-09-10T00:25:53.939Z,11.80
2018-09-10T00:28:22.571Z,12.43
2018-09-10T00:30:51.303Z,11.10
2018-09-10T00:33:21.784Z,11.67
2018-09-10T00:35:50.963Z,11.50
2018-09-10T00:38:19.770Z,11.37
2018-09-10T00:40:48.478Z,11.20
2018-09-10T00:43:17.208Z,11.53
2018-09-10T00:45:45.924Z,11.57
2018-09-10T00:48:14.654Z,11.43
2018-09-10T00:50:43.295Z,11.70
2018-09-10T00:53:11.940Z,12.17
2018-09-10T00:55:40.543Z,11.80
2018-09-10T00:58:09.171Z,12.17
2018-09-10T01:00:37.783Z,11.83
2018-09-10T01:03:06.416Z,11.80
2018-09-10T01:05:35.079Z,12.30
2018-09-10T01:08:03.833Z,12.37
2018-09-10T01:10:32.523Z,11.93
2018-09-10T01:13:01.208Z,12.30
2018-09-10T01:15:29.946Z,11.53
2018-09-10T01:17:58.634Z,12.50
2018-09-10T01:20:27.306Z,12.30
2018-09-10T01:22:55.948Z,11.83
2018-09-10T01:25:24.598Z,10.73
2018-09-10T01:27:53.238Z,10.57
2018-09-10T01:30:21.925Z,10.87
2018-09-10T01:32:50.553Z,12.07
2018-09-10T01:35:19.236Z,12.40
2018-09-10T01:37:47.858Z,11.43
2018-09-10T01:40:16.559Z,11.80
2018-09-10T01:42:45.341Z,12.03
2018-09-10T01:45:14.103Z,12.47
2018-09-10T01:47:42.879Z,11.63
2018-09-10T01:50:11.559Z,11.00
2018-09-10T01:52:40.170Z,10.73
2018-09-10T01:55:08.763Z,11.37
2018-09-10T01:57:37.416Z,11.00
2018-09-10T02:00:06.203Z,11.07
2018-09-10T02:02:34.896Z,11.60
2018-09-10T02:05:03.719Z,12.23
2018-09-10T02:07:32.476Z,11.97
2018-09-10T02:10:01.154Z,12.47
2018-09-10T02:12:29.805Z,11.90
2018-09-10T02:14:58.453Z,11.80
2018-09-10T02:17:27.134Z,11.30
2018-09-10T02:19:55.747Z,12.80
2018-09-10T02:22:24.424Z,11.53
2018-09-10T02:24:53.216Z,12.63
2018-09-10T02:27:21.967Z,12.10
2018-09-10T02:29:50.728Z,12.30
2018-09-10T02:32:19.567Z,12.13
2018-09-10T02:34:48.344Z,11.70
2018-09-10T02:37:17.119Z,12.33
2018-09-10T02:39:45.836Z,11.63
2018-09-10T02:42:14.573Z,11.43
2018-09-10T02:44:43.232Z,11.73
2018-09-10T02:47:11.871Z,11.90
2018-09-10T02:49:40.481Z,11.43
2018-09-10T02:52:09.102Z,11.43
2018-09-10T02:54:37.799Z,11.53
2018-09-10T02:57:06.891Z,11.00
2018-09-10T02:59:35.618Z,11.70
2018-09-10T03:02:04.388Z,12.00
2018-09-10T03:04:33.094Z,11.80
2018-09-10T03:07:01.836Z,11.97
2018-09-10T03:09:30.546Z,12.27
2018-09-10T03:11:59.299Z,12.63
2018-09-10T03:14:28.037Z,13.27
2018-09-10T03:16:56.756Z,13.20
2018-09-10T03:19:25.466Z,14.40
2018-09-10T03:21:54.176Z,18.03
2018-09-10T03:24:22.969Z,14.90
2018-09-10T03:26:51.686Z,10.07
2018-09-10T03:29:20.385Z,10.27
2018-09-10T03:31:49.151Z,10.17
2018-09-10T03:34:17.938Z,11.43
2018-09-10T03:36:46.705Z,11.03
2018-09-10T03:39:15.468Z,11.87
2018-09-10T03:41:44.226Z,11.87
2018-09-10T03:44:12.949Z,12.60
2018-09-10T03:46:41.679Z,12.20
2018-09-10T03:49:10.404Z,12.40
2018-09-10T03:51:39.205Z,13.13
2018-09-10T03:54:08.118Z,13.63
2018-09-10T03:56:36.813Z,12.83
2018-09-10T03:59:05.433Z,13.60
2018-09-10T04:01:34.013Z,12.57
2018-09-10T04:04:02.656Z,12.93
2018-09-10T04:06:31.345Z,14.77
2018-09-10T04:09:00.003Z,16.00
2018-09-10T04:11:28.645Z,14.07
2018-09-10T04:13:57.278Z,13.57
2018-09-10T04:16:25.898Z,13.37
2018-09-10T04:18:54.582Z,14.30
2018-09-10T04:21:23.251Z,13.63
2018-09-10T04:23:51.897Z,14.03
2018-09-10T04:26:20.509Z,12.47
2018-09-10T04:28:49.158Z,11.67
2018-09-10T04:31:17.815Z,11.87
2018-09-10T04:33:46.478Z,11.43
2018-09-10T04:36:15.227Z,11.40
2018-09-10T04:38:43.831Z,11.80
2018-09-10T04:41:12.483Z,11.77
2018-09-10T04:43:41.104Z,12.27
2018-09-10T04:46:09.733Z,12.50
2018-09-10T04:48:38.490Z,11.90
2018-09-10T04:51:07.279Z,13.33
2018-09-10T04:53:35.917Z,13.47
2018-09-10T04:56:04.625Z,13.40
2018-09-10T04:58:33.272Z,13.43
2018-09-10T05:01:02.026Z,13.73
2018-09-10T05:03:30.999Z,12.67
2018-09-10T05:05:59.611Z,12.57
2018-09-10T05:08:28.250Z,11.33
2018-09-10T05:10:56.953Z,12.03
2018-09-10T05:13:25.668Z,11.83
2018-09-10T05:15:54.671Z,12.13
2018-09-10T05:18:24.269Z,12.83
2018-09-10T05:20:53.044Z,11.83
2018-09-10T05:23:21.719Z,12.80
2018-09-10T05:25:50.356Z,12.67
2018-09-10T05:28:19.064Z,13.43
2018-09-10T05:30:47.703Z,12.33
2018-09-10T05:33:16.336Z,12.53
2018-09-10T05:35:44.923Z,11.90
2018-09-10T05:38:13.589Z,10.97
2018-09-10T05:40:42.256Z,11.13
2018-09-10T05:43:10.904Z,10.27
2018-09-10T05:45:39.629Z,10.10
2018-09-10T05:48:08.273Z,9.43
2018-09-10T05:50:36.929Z,9.47
2018-09-10T05:53:05.561Z,9.60
2018-09-10T05:55:34.358Z,9.83
2018-09-10T05:58:03.039Z,9.37
2018-09-10T06:00:31.764Z,9.57
2018-09-10T06:03:00.446Z,8.57
2018-09-10T06:05:29.093Z,9.33
2018-09-10T06:07:57.766Z,9.30
2018-09-10T06:10:26.523Z,9.50
2018-09-10T06:12:55.210Z,9.30
2018-09-10T06:15:24.031Z,9.30
2018-09-10T06:17:52.821Z,9.10
2018-09-10T06:20:21.604Z,9.37
2018-09-10T06:22:50.444Z,8.87
2018-09-10T06:25:19.207Z,8.33
2018-09-10T06:27:48.039Z,8.47
2018-09-10T06:30:16.842Z,8.57
2018-09-10T06:32:45.637Z,8.63
2018-09-10T06:35:14.376Z,8.67
2018-09-10T06:37:43.204Z,8.00
2018-09-10T06:40:11.994Z,8.40
2018-09-10T06:42:40.806Z,8.60
2018-09-10T06:45:09.579Z,9.13
2018-09-10T06:47:38.384Z,8.70
2018-09-10T06:50:07.206Z,9.07
2018-09-10T06:52:35.955Z,9.23
2018-09-10T06:55:05.299Z,10.23
2018-09-10T06:57:34.119Z,10.90
2018-09-10T07:00:03.068Z,10.50
2018-09-10T07:02:31.846Z,9.87
2018-09-10T07:05:00.662Z,9.58
2018-09-10T07:07:29.504Z,9.98
2018-09-10T07:09:58.426Z,9.65
2018-09-10T07:12:27.123Z,8.70
2018-09-10T07:14:55.831Z,8.70
2018-09-10T07:17:25.364Z,8.98
2018-09-10T07:19:54.072Z,9.70
2018-09-10T07:22:22.721Z,9.03
2018-09-10T07:24:51.377Z,9.33
2018-09-10T07:27:20.086Z,8.25
2018-09-10T07:29:48.696Z,8.38
2018-09-10T07:32:17.381Z,8.65
2018-09-10T07:34:46.157Z,8.65
2018-09-10T07:37:21.243Z,8.35
2018-09-10T07:39:50.392Z,7.47
2018-09-10T07:42:19.071Z,7.80
2018-09-10T07:44:47.757Z,7.12
2018-09-10T07:47:16.391Z,6.80
2018-09-10T07:49:45.154Z,6.67
2018-09-10T07:52:13.903Z,6.97
2018-09-10T07:54:42.641Z,6.60
2018-09-10T07:57:11.318Z,5.75
2018-09-10T07:59:39.926Z,6.62
2018-09-10T08:02:08.546Z,5.92
2018-09-10T08:04:37.134Z,6.50
2018-09-10T08:07:05.802Z,6.60
2018-09-10T08:09:34.408Z,6.67
2018-09-10T08:12:03.161Z,7.03
2018-09-10T08:14:31.811Z,6.80
2018-09-10T08:17:00.428Z,6.53
2018-09-10T08:19:29.101Z,6.67
2018-09-10T08:21:57.731Z,6.53
2018-09-10T08:24:26.529Z,7.05
2018-09-10T08:26:55.107Z,6.47
2018-09-10T08:29:23.970Z,6.85
2018-09-10T08:31:52.698Z,6.20
2018-09-10T08:34:22.383Z,6.50
2018-09-10T08:36:51.099Z,6.17
2018-09-10T08:39:20.188Z,7.12
2018-09-10T08:41:48.949Z,6.75
2018-09-10T08:44:17.876Z,6.35
2018-09-10T08:46:46.598Z,6.55
2018-09-10T08:49:15.267Z,6.53
2018-09-10T08:51:43.906Z,6.55
2018-09-10T08:54:12.634Z,6.55
2018-09-10T08:56:41.387Z,6.60
2018-09-10T08:59:10.141Z,6.22
2018-09-10T09:01:39.004Z,6.00
2018-09-10T09:04:07.818Z,6.40
2018-09-10T09:06:36.570Z,6.20
2018-09-10T09:09:10.866Z,6.58
2018-09-10T09:11:40.296Z,5.97
2018-09-10T09:14:09.111Z,5.90
2018-09-10T09:16:37.814Z,5.35
2018-09-10T09:19:06.646Z,5.35
2018-09-10T09:21:35.441Z,5.90
2018-09-10T09:24:04.331Z,5.70
2018-09-10T09:26:33.084Z,5.50
2018-09-10T09:29:01.768Z,5.22
2018-09-10T09:31:30.398Z,4.85
2018-09-10T09:33:59.085Z,5.08
2018-09-10T09:36:33.468Z,5.28
2018-09-10T09:39:07.705Z,5.75
2018-09-10T09:41:41.751Z,5.37
2018-09-10T09:44:16.028Z,4.30
2018-09-10T09:46:44.735Z,4.97
2018-09-10T09:49:13.583Z,5.05
2018-09-10T09:51:42.673Z,5.12
2018-09-10T09:54:11.396Z,4.65
2018-09-10T09:56:40.249Z,4.42
2018-09-10T09:59:08.936Z,4.87
2018-09-10T10:01:44.988Z,4.85
2018-09-10T10:04:14.197Z,4.25
2018-09-10T10:06:42.833Z,4.55
2018-09-10T10:09:12.333Z,4.30
2018-09-10T10:11:41.221Z,4.30
2018-09-10T10:14:10.778Z,4.50
2018-09-10T10:16:39.586Z,4.33
2018-09-10T10:19:08.400Z,5.08
2018-09-10T10:21:37.069Z,5.40
2018-09-10T10:24:05.861Z,4.80
2018-09-10T10:26:34.586Z,5.10
2018-09-10T10:29:03.196Z,5.33
2018-09-10T10:31:31.824Z,5.03
2018-09-10T10:34:00.486Z,5.12
2018-09-10T10:36:29.133Z,4.65
2018-09-10T10:38:57.775Z,4.85
2018-09-10T10:41:27.374Z,5.72
2018-09-10T10:43:56.048Z,4.40
2018-09-10T10:46:24.809Z,4.12
2018-09-10T10:48:53.498Z,4.00
2018-09-10T10:51:22.318Z,4.25
2018-09-10T10:53:51.068Z,4.20
2018-09-10T10:56:19.666Z,4.60
2018-09-10T10:58:48.311Z,3.95
2018-09-10T11:01:17.105Z,4.30
2018-09-10T11:03:45.774Z,4.10
2018-09-10T11:06:14.436Z,3.87
2018-09-10T11:08:43.101Z,3.87
2018-09-10T11:11:11.826Z,4.00
2018-09-10T11:13:40.646Z,4.05
2018-09-10T11:16:09.451Z,3.60
2018-09-10T11:18:38.271Z,4.03
2018-09-10T11:21:07.093Z,3.98
2018-09-10T11:23:35.726Z,3.70
2018-09-10T11:26:04.500Z,3.55
2018-09-10T11:28:33.298Z,5.50
2018-09-10T11:31:01.945Z,3.83
2018-09-10T11:33:30.712Z,3.90
2018-09-10T11:35:59.362Z,3.65
2018-09-10T11:38:28.031Z,3.70
2018-09-10T11:40:56.800Z,3.67
2018-09-10T11:43:25.731Z,3.60
2018-09-10T11:45:54.495Z,3.95
2018-09-10T11:48:23.273Z,3.75
2018-09-10T11:50:52.056Z,3.72
2018-09-10T11:53:20.723Z,4.78
2018-09-10T11:55:49.489Z,4.20
2018-09-10T11:58:18.165Z,3.72
2018-09-10T12:00:46.830Z,3.80
2018-09-10T12:03:15.596Z,3.70
2018-09-10T12:05:44.359Z,3.80
2018-09-10T12:08:13.213Z,3.20
2018-09-10T12:10:42.028Z,3.47
2018-09-10T12:13:10.710Z,3.10
2018-09-10T12:15:39.535Z,3.55
2018-09-10T12:18:08.370Z,3.00
2018-09-10T12:20:37.018Z,2.85
2018-09-10T12:23:06.173Z,2.50
2018-09-10T12:25:34.948Z,2.62
2018-09-10T12:28:03.720Z,2.40
2018-09-10T12:30:32.525Z,2.77
2018-09-10T12:33:01.238Z,2.77
2018-09-10T12:35:30.785Z,2.75
2018-09-10T12:37:59.395Z,2.00
2018-09-10T12:40:28.098Z,2.62
2018-09-10T12:42:56.798Z,2.42
2018-09-10T12:45:25.500Z,2.60
2018-09-10T12:47:54.725Z,2.20
2018-09-10T12:50:23.593Z,2.10
2018-09-10T12:52:52.384Z,2.70
2018-09-10T12:55:21.182Z,2.67
2018-09-10T12:57:49.932Z,2.50
2018-09-10T13:00:18.867Z,2.80
2018-09-10T13:02:47.814Z,2.60
2018-09-10T13:05:16.768Z,2.80
2018-09-10T13:07:45.655Z,2.58
2018-09-10T13:10:14.370Z,2.55
2018-09-10T13:12:43.166Z,2.70
2018-09-10T13:15:11.827Z,2.58
2018-09-10T13:17:40.573Z,2.90
2018-09-10T13:20:09.288Z,2.75
2018-09-10T13:22:38.012Z,2.70
2018-09-10T13:25:06.833Z,2.50
2018-09-10T13:27:35.646Z,2.60
2018-09-10T13:30:04.549Z,2.75
2018-09-10T13:32:33.308Z,2.60
2018-09-10T13:35:02.733Z,2.72
2018-09-10T13:37:31.409Z,2.30
2018-09-10T13:40:00.274Z,2.47
2018-09-10T13:42:29.066Z,2.65
2018-09-10T13:44:57.798Z,2.60
2018-09-10T13:47:26.598Z,2.60
2018-09-10T13:49:56.165Z,2.40
2018-09-10T13:52:26.483Z,2.52
2018-09-10T13:54:55.235Z,2.70
2018-09-10T13:57:24.050Z,2.65
2018-09-10T13:59:53.752Z,2.40
2018-09-10T14:02:22.427Z,2.58
2018-09-10T14:04:51.041Z,2.42
2018-09-10T14:07:19.798Z,2.30
2018-09-10T14:09:48.691Z,2.42
2018-09-10T14:12:17.427Z,2.33
2018-09-10T14:14:46.110Z,2.30
2018-09-10T14:17:14.713Z,2.05
2018-09-10T14:19:43.881Z,2.30
2018-09-10T14:22:12.711Z,2.08
2018-09-10T14:24:41.456Z,2.10
2018-09-10T14:27:10.271Z,1.82
2018-09-10T14:29:39.046Z,1.80
2018-09-10T14:32:07.797Z,2.05
2018-09-10T14:34:37.452Z,2.67
2018-09-10T14:37:06.374Z,2.10
2018-09-10T14:39:35.514Z,1.87
2018-09-10T14:42:04.704Z,1.67
2018-09-10T14:44:34.046Z,1.90
2018-09-10T14:47:02.824Z,1.85
2018-09-10T14:49:31.625Z,2.00
2018-09-10T14:52:00.436Z,1.92
2018-09-10T14:54:29.644Z,2.00
2018-09-10T14:56:58.878Z,1.92
2018-09-10T14:59:28.571Z,1.90
2018-09-10T15:01:57.208Z,2.02
2018-09-10T15:04:25.929Z,2.30
2018-09-10T15:06:55.251Z,2.00
2018-09-10T15:09:23.937Z,2.40
2018-09-10T15:11:52.688Z,2.10
2018-09-10T15:14:21.463Z,2.70
2018-09-10T15:16:50.244Z,2.58
2018-09-10T15:19:19.049Z,2.47
2018-09-10T15:21:47.780Z,2.30
2018-09-10T15:24:16.504Z,2.50
2018-09-10T15:26:45.228Z,2.60
2018-09-10T15:29:13.876Z,2.50
2018-09-10T15:31:42.466Z,2.45
2018-09-10T15:34:11.254Z,2.40
2018-09-10T15:36:40.007Z,2.58
2018-09-10T15:39:09.222Z,2.33
2018-09-10T15:41:37.980Z,2.70
2018-09-10T15:44:06.813Z,2.50
2018-09-10T15:46:35.640Z,2.62
2018-09-10T15:49:04.564Z,2.42
2018-09-10T15:51:33.285Z,2.50
2018-09-10T15:54:01.951Z,2.70
2018-09-10T15:56:30.598Z,2.52
2018-09-10T15:58:59.359Z,2.50
2018-09-10T16:01:27.988Z,2.55
2018-09-10T16:03:56.765Z,2.40
2018-09-10T16:06:25.464Z,2.58
2018-09-10T16:08:54.212Z,2.58
2018-09-10T16:11:22.942Z,2.67
2018-09-10T16:13:51.707Z,2.60
2018-09-10T16:16:20.506Z,2.80
2018-09-10T16:18:49.319Z,2.70
2018-09-10T16:21:18.048Z,2.80
2018-09-10T16:23:46.750Z,2.62
2018-09-10T16:26:15.461Z,2.60
2018-09-10T16:28:44.249Z,2.77
2018-09-10T16:31:13.027Z,2.72
2018-09-10T16:33:41.679Z,2.80
2018-09-10T16:36:10.272Z,2.70
2018-09-10T16:38:38.962Z,2.87
2018-09-10T16:41:07.728Z,3.08
2018-09-10T16:43:36.312Z,2.67
2018-09-10T16:46:05.079Z,2.92
2018-09-10T16:48:33.899Z,2.55
2018-09-10T16:51:02.552Z,3.20
2018-09-10T16:53:31.237Z,3.20
2018-09-10T16:55:59.898Z,2.90
2018-09-10T16:58:28.544Z,2.90
2018-09-10T17:00:57.177Z,2.95
2018-09-10T17:03:25.793Z,2.80
2018-09-10T17:05:55.809Z,2.72
2018-09-10T17:08:24.480Z,2.50
2018-09-10T17:10:53.179Z,2.83
2018-09-10T17:13:21.877Z,3.40
2018-09-10T17:15:50.578Z,3.30
2018-09-10T17:18:19.994Z,3.10
2018-09-10T17:20:48.714Z,2.72
2018-09-10T17:23:17.479Z,2.77
2018-09-10T17:25:51.231Z,3.30
2018-09-10T17:28:20.529Z,3.20
2018-09-10T17:30:49.481Z,2.83
2018-09-10T17:33:18.336Z,3.08
2018-09-10T17:35:47.221Z,3.35
2018-09-10T17:38:16.226Z,3.65
2018-09-10T17:40:45.055Z,4.50
2018-09-10T17:43:14.826Z,3.90
2018-09-10T17:45:43.603Z,4.28
2018-09-10T17:48:12.362Z,3.70
2018-09-10T17:50:41.288Z,3.80
2018-09-10T17:53:10.041Z,3.67
2018-09-10T17:55:38.846Z,3.77
2018-09-10T17:58:07.611Z,3.63
2018-09-10T18:00:39.693Z,3.30
2018-09-10T18:03:10.286Z,3.50
2018-09-10T18:05:39.111Z,3.40
2018-09-10T18:08:07.819Z,3.90
2018-09-10T18:10:37.758Z,3.63
2018-09-10T18:13:06.788Z,4.23
2018-09-10T18:15:35.536Z,4.30
2018-09-10T18:18:04.463Z,3.63
2018-09-10T18:20:33.654Z,5.70
2018-09-10T18:23:02.409Z,5.93
2018-09-10T18:25:31.226Z,6.43
2018-09-10T18:27:59.946Z,5.43
2018-09-10T18:30:28.711Z,5.87
2018-09-10T18:32:57.410Z,4.03
2018-09-10T18:35:27.383Z,4.20
2018-09-10T18:37:55.981Z,3.67
2018-09-10T18:40:24.699Z,3.30
2018-09-10T18:42:53.307Z,3.40
2018-09-10T18:45:21.946Z,3.43
2018-09-10T18:47:50.645Z,3.03
2018-09-10T18:50:19.449Z,3.30
2018-09-10T18:52:48.787Z,3.60
2018-09-10T18:55:17.674Z,3.60
2018-09-10T18:57:46.692Z,4.13
2018-09-10T19:00:15.639Z,4.23
2018-09-10T19:02:44.768Z,3.83
2018-09-10T19:05:13.616Z,4.10
2018-09-10T19:07:42.465Z,3.77
2018-09-10T19:10:11.194Z,3.83
2018-09-10T19:12:39.981Z,3.20
2018-09-10T19:15:08.687Z,3.27
2018-09-10T19:17:37.855Z,3.10
2018-09-10T19:20:07.524Z,3.70
2018-09-10T19:22:36.306Z,3.27
2018-09-10T19:25:05.704Z,3.37
2018-09-10T19:27:35.193Z,3.10
2018-09-10T19:30:04.688Z,3.30
2018-09-10T19:32:33.683Z,3.20
2018-09-10T19:35:03.835Z,3.63
2018-09-10T19:37:33.581Z,3.40
2018-09-10T19:43:00.196Z,3.67
2018-09-10T19:45:29.465Z,3.37
2018-09-10T19:47:59.553Z,3.10
2018-09-10T19:50:29.064Z,3.20
2018-09-10T19:52:58.329Z,3.33
2018-09-10T19:55:27.547Z,3.27
2018-09-10T19:57:56.787Z,3.23
2018-09-10T20:00:26.941Z,3.27
2018-09-10T20:02:56.809Z,3.30
2018-09-10T20:05:26.168Z,3.40
2018-09-10T20:07:56.507Z,3.50
2018-09-10T20:10:25.869Z,3.10
2018-09-10T20:12:55.101Z,3.30
2018-09-10T20:15:24.337Z,3.33
2018-09-10T20:17:53.703Z,4.20
2018-09-10T20:20:22.947Z,3.73
2018-09-10T20:22:52.729Z,3.70
2018-09-10T20:25:23.291Z,3.30
2018-09-10T20:27:52.599Z,3.40
2018-09-10T20:30:23.859Z,3.67
2018-09-10T20:32:53.133Z,3.83
2018-09-10T20:35:23.001Z,3.70
2018-09-10T20:37:52.247Z,3.80
2018-09-10T20:40:21.546Z,3.87
2018-09-10T20:42:52.365Z,4.47
2018-09-10T20:45:21.793Z,4.03
2018-09-10T20:47:51.144Z,4.00
2018-09-10T20:50:21.002Z,3.83
2018-09-10T20:52:50.302Z,3.97
2018-09-10T20:55:20.077Z,4.70
2018-09-10T20:57:49.613Z,4.10
2018-09-10T21:00:18.799Z,4.00
2018-09-10T21:02:48.036Z,3.93
2018-09-10T21:05:17.251Z,4.10
2018-09-10T21:07:46.444Z,4.10
2018-09-10T21:10:15.728Z,4.10
2018-09-10T21:12:45.066Z,4.53
2018-09-10T21:15:14.515Z,3.80
2018-09-10T21:17:43.993Z,4.27
2018-09-10T21:20:14.253Z,4.30
2018-09-10T21:22:43.676Z,4.53
2018-09-10T21:25:13.039Z,3.97
2018-09-10T21:27:42.435Z,4.03
2018-09-10T21:30:11.934Z,4.07
2018-09-10T21:32:41.213Z,4.23
2018-09-10T21:35:11.035Z,4.70
2018-09-10T21:37:40.258Z,4.57
2018-09-10T21:40:09.665Z,4.90
2018-09-10T21:42:39.007Z,4.43
2018-09-10T21:45:08.436Z,4.70
2018-09-10T21:47:37.734Z,3.90
2018-09-10T21:50:07.239Z,4.40
2018-09-10T21:52:36.524Z,4.17
2018-09-10T21:55:05.886Z,4.37
2018-09-10T21:57:35.258Z,4.07
2018-09-10T22:00:05.876Z,4.10
2018-09-10T22:02:35.239Z,4.40
2018-09-10T22:05:05.057Z,5.00
2018-09-10T22:07:34.533Z,4.90
2018-09-10T22:10:03.997Z,4.80
2018-09-10T22:12:33.349Z,4.57
2018-09-10T22:15:02.876Z,5.10
2018-09-10T22:17:32.201Z,5.03
2018-09-10T22:20:01.477Z,4.93
2018-09-10T22:22:30.725Z,4.60
2018-09-10T22:25:00.477Z,5.10
2018-09-10T22:27:29.677Z,5.40
2018-09-10T22:29:59.319Z,4.87
2018-09-10T22:32:28.681Z,4.80
2018-09-10T22:34:58.204Z,4.57
2018-09-10T22:37:27.564Z,5.17
2018-09-10T22:39:56.878Z,4.43
2018-09-10T22:42:26.962Z,5.10
2018-09-10T22:44:56.849Z,4.97
2018-09-10T22:47:26.149Z,4.80
2018-09-10T22:49:55.366Z,4.93
2018-09-10T22:52:24.615Z,5.33
2018-09-10T22:54:54.791Z,5.10
2018-09-10T22:57:24.122Z,5.10
2018-09-10T22:59:53.367Z,4.73
2018-09-10T23:02:22.796Z,5.07
2018-09-10T23:04:52.214Z,5.70
2018-09-10T23:07:21.469Z,5.00
2018-09-10T23:09:50.646Z,5.13
2018-09-10T23:12:20.467Z,4.80
2018-09-10T23:14:49.746Z,4.83
2018-09-10T23:17:19.157Z,5.17
2018-09-10T23:19:48.714Z,6.07
2018-09-10T23:22:17.973Z,5.43
2018-09-10T23:24:47.243Z,5.00
2018-09-10T23:27:16.839Z,5.20
2018-09-10T23:29:46.041Z,5.27
2018-09-10T23:32:15.146Z,5.43
2018-09-10T23:34:44.241Z,5.83
2018-09-10T23:37:13.470Z,5.50
2018-09-10T23:39:42.801Z,5.57
2018-09-10T23:42:12.163Z,5.70
2018-09-10T23:44:41.556Z,5.47
2018-09-10T23:47:10.865Z,6.17
2018-09-10T23:49:41.095Z,5.60
2018-09-10T23:52:10.255Z,6.30
2018-09-10T23:54:39.383Z,6.10
2018-09-10T23:57:08.484Z,5.63
2018-09-10T23:59:37.583Z,5.40
